Time;durP1;ratioP1;P1;durP2;ratioP2;P2;SDS_P1;SDS_P2;PMS_P1;PMS_P2;Temp;Humidity;BMP_temperature;BMP_pressure;BME280_temperature;BME280_humidity;BME280_pressure;Samples;Min_cycle;Max_cycle;Signal;HPM_P1;HPM_P2
2021/06/20 00:00:59;;;;;;;;;7.00;7.00;;;;;19.47;94.23;100576.38;4974775;28;51005;-53
2021/06/20 00:03:24;;;;;;;;;9.00;9.00;;;;;19.45;94.40;100573.75;4991081;28;50978;-54
2021/06/20 00:05:55;;;;;;;;;6.00;6.00;;;;;19.41;94.30;100570.22;4991977;28;51084;-55
2021/06/20 00:08:21;;;;;;;;;8.33;8.00;;;;;19.38;94.15;100572.84;4991785;28;51134;-53
2021/06/20 00:10:49;;;;;;;;;7.33;7.33;;;;;19.39;94.29;100579.00;4992241;28;51242;-54
2021/06/20 00:13:16;;;;;;;;;7.67;7.67;;;;;19.42;94.40;100576.34;4990586;28;50991;-53
2021/06/20 00:15:42;;;;;;;;;7.33;7.33;;;;;19.50;94.78;100574.63;4991719;28;51757;-55
2021/06/20 00:18:08;;;;;;;;;9.00;8.33;;;;;19.55;94.79;100585.19;4993324;28;51043;-52
2021/06/20 00:20:37;;;;;;;;;10.67;9.67;;;;;19.64;94.96;100576.41;4977632;28;51118;-55
2021/06/20 00:23:02;;;;;;;;;6.67;6.67;;;;;19.72;94.64;100569.38;4995163;28;51136;-54
2021/06/20 00:25:28;;;;;;;;;7.67;7.67;;;;;19.74;94.08;100580.78;4994698;28;52136;-54
2021/06/20 00:27:54;;;;;;;;;9.00;8.67;;;;;19.73;93.31;100571.13;4993589;28;50885;-54
2021/06/20 00:30:21;;;;;;;;;8.00;7.67;;;;;19.73;92.99;100565.88;4995241;28;51143;-55
2021/06/20 00:32:48;;;;;;;;;7.00;7.00;;;;;19.71;92.95;100565.00;4995470;28;51105;-52
2021/06/20 00:35:14;;;;;;;;;7.67;7.00;;;;;19.69;92.75;100556.19;4994383;28;52758;-53
2021/06/20 00:37:40;;;;;;;;;5.00;5.00;;;;;19.63;92.66;100556.22;4997570;28;50981;-54
2021/06/20 00:40:06;;;;;;;;;5.33;5.33;;;;;19.51;92.10;100552.66;4977198;28;51142;-53
2021/06/20 00:42:33;;;;;;;;;5.00;5.00;;;;;19.43;91.22;100557.06;4995080;28;51378;-53
2021/06/20 00:44:58;;;;;;;;;4.00;4.00;;;;;19.33;90.54;100550.00;4994516;28;52233;-51
2021/06/20 00:47:24;;;;;;;;;5.00;4.00;;;;;19.22;89.84;100560.53;4994815;28;50955;-52
2021/06/20 00:49:49;;;;;;;;;5.00;4.00;;;;;19.17;89.68;100568.41;4995160;28;51137;-54
2021/06/20 00:52:17;;;;;;;;;2.33;2.33;;;;;19.13;89.27;100564.00;4995009;28;51051;-54
2021/06/20 00:54:47;;;;;;;;;4.00;4.00;;;;;19.09;89.03;100564.88;4976645;28;52032;-53
2021/06/20 00:57:17;;;;;;;;;4.00;4.00;;;;;19.01;88.55;100565.72;4994657;28;50997;-52
2021/06/20 00:59:43;;;;;;;;;3.67;3.67;;;;;18.97;88.18;100579.72;4992089;28;51647;-51
2021/06/20 01:02:11;;;;;;;;;2.00;2.00;;;;;18.91;87.31;100570.94;4977046;28;51047;-53
2021/06/20 01:04:37;;;;;;;;;5.00;4.00;;;;;18.85;87.03;100571.78;4994398;28;52764;-54
2021/06/20 01:07:03;;;;;;;;;6.00;5.00;;;;;18.82;86.58;100566.53;4994284;28;51140;-54
2021/06/20 01:09:28;;;;;;;;;3.00;3.00;;;;;18.79;86.84;100562.09;4960172;28;51196;-54
2021/06/20 01:11:54;;;;;;;;;8.00;7.67;;;;;18.79;86.96;100555.97;4994361;28;51104;-53
2021/06/20 01:14:20;;;;;;;;;10.33;10.33;;;;;18.76;87.01;100562.97;4992566;28;51196;-54
2021/06/20 01:16:45;;;;;;;;;4.33;4.33;;;;;18.76;86.97;100567.38;4994389;28;51038;-53
2021/06/20 01:19:10;;;;;;;;;4.33;4.33;;;;;18.73;86.73;100565.59;4994178;28;51014;-51
2021/06/20 01:21:36;;;;;;;;;7.00;6.33;;;;;18.68;86.70;100562.06;4993100;28;51239;-54
2021/06/20 01:24:01;;;;;;;;;10.33;8.67;;;;;18.68;86.64;100564.69;4993939;28;52180;-51
2021/06/20 01:26:27;;;;;;;;;7.67;7.00;;;;;18.68;87.20;100564.69;4993818;28;51006;-53
2021/06/20 01:29:02;;;;;;;;;4.67;3.33;;;;;18.66;87.19;100563.78;4993214;28;50878;-50
2021/06/20 01:31:28;;;;;;;;;2.50;2.50;;;;;18.65;87.08;100571.66;4991620;28;50917;-53
2021/06/20 01:33:53;;;;;;;;;4.67;4.67;;;;;18.61;86.83;100573.41;4994096;28;51174;-52
2021/06/20 01:36:18;;;;;;;;;4.00;3.33;;;;;18.57;86.98;100576.91;4984823;28;51157;-51
2021/06/20 01:38:44;;;;;;;;;4.33;4.33;;;;;18.55;86.76;100568.13;5000673;28;51073;-53
2021/06/20 01:41:10;;;;;;;;;3.67;3.33;;;;;18.52;87.04;100573.38;4994259;28;51216;-54
2021/06/20 01:43:36;;;;;;;;;4.67;4.00;;;;;18.49;87.03;100566.34;4993961;28;51875;-53
2021/06/20 01:46:01;;;;;;;;;5.67;4.67;;;;;18.49;87.27;100579.50;4991495;28;51061;-54
2021/06/20 01:48:27;;;;;;;;;3.67;3.67;;;;;18.46;87.36;100563.69;4994126;28;52212;-54
2021/06/20 01:50:52;;;;;;;;;4.00;4.00;;;;;18.44;87.42;100568.94;4994188;28;50963;-53
2021/06/20 01:53:17;;;;;;;;;5.00;4.33;;;;;18.43;87.64;100567.19;4993707;28;51099;-51
2021/06/20 01:55:46;;;;;;;;;4.00;4.00;;;;;18.43;87.67;100567.19;4993722;28;51058;-51
2021/06/20 01:58:14;;;;;;;;;6.00;5.33;;;;;18.43;87.58;100559.28;4994174;28;51114;-55
2021/06/20 02:00:46;;;;;;;;;6.00;4.67;;;;;18.41;87.51;100558.41;4993949;28;51180;-55
2021/06/20 02:03:24;;;;;;;;;3.67;3.67;;;;;18.39;87.41;100562.75;4992011;28;51141;-54
2021/06/20 02:05:52;;;;;;;;;6.00;5.67;;;;;18.36;87.52;100557.50;4980709;28;51019;-54
2021/06/20 02:08:19;;;;;;;;;4.67;4.67;;;;;18.34;87.65;100538.22;4993321;28;51309;-54
2021/06/20 02:10:46;;;;;;;;;6.33;6.33;;;;;18.32;87.41;100540.81;4993777;28;51183;-54
2021/06/20 02:13:12;;;;;;;;;4.67;4.67;;;;;18.30;87.98;100552.19;4993197;28;51272;-53
2021/06/20 02:15:37;;;;;;;;;3.67;3.67;;;;;18.29;87.96;100547.81;4993484;28;51013;-54
2021/06/20 02:18:04;;;;;;;;;6.33;5.33;;;;;18.29;88.22;100547.81;4993512;28;51086;-54
2021/06/20 02:20:30;;;;;;;;;6.33;6.33;;;;;18.27;88.46;100545.16;4993919;28;51328;-52
2021/06/20 02:22:56;;;;;;;;;4.33;4.33;;;;;18.24;88.41;100551.28;4991531;28;51233;-50
2021/06/20 02:25:22;;;;;;;;;6.33;6.33;;;;;18.23;88.31;100557.44;4993410;28;51120;-49
2021/06/20 02:27:50;;;;;;;;;7.33;5.33;;;;;18.21;88.37;100559.19;4993399;28;51094;-48
2021/06/20 02:30:17;;;;;;;;;6.00;5.00;;;;;18.20;88.42;100557.41;4993504;28;50982;-51
2021/06/20 02:32:43;;;;;;;;;6.33;6.33;;;;;18.18;88.35;100564.41;4991512;28;51838;-52
2021/06/20 02:35:11;;;;;;;;;5.67;5.67;;;;;18.17;88.47;100573.16;4985988;28;51191;-54
2021/06/20 02:37:37;;;;;;;;;5.67;5.67;;;;;18.17;88.75;100573.16;4998475;28;51287;-52
2021/06/20 02:40:05;;;;;;;;;6.00;6.00;;;;;18.16;88.75;100566.13;4993316;28;51061;-53
2021/06/20 02:42:30;;;;;;;;;7.67;7.67;;;;;18.16;88.72;100573.16;4992747;28;51225;-54
2021/06/20 02:44:56;;;;;;;;;6.33;5.67;;;;;18.13;88.77;100581.00;4975697;28;51106;-54
2021/06/20 02:47:21;;;;;;;;;6.33;6.33;;;;;18.09;88.81;100578.38;4975663;28;50891;-54
2021/06/20 02:49:47;;;;;;;;;8.67;8.00;;;;;18.05;88.99;100579.19;4993570;28;51121;-53
2021/06/20 02:52:14;;;;;;;;;8.33;8.33;;;;;18.04;89.00;100576.53;4992909;28;52258;-53
2021/06/20 02:54:49;;;;;;;;;7.00;6.67;;;;;18.01;89.03;100582.63;4993175;28;51034;-53
2021/06/20 02:57:16;;;;;;;;;7.67;7.00;;;;;18.00;89.22;100580.00;4992905;28;50960;-54
2021/06/20 02:59:41;;;;;;;;;7.67;6.67;;;;;17.98;89.15;100577.34;4993419;28;51069;-53
2021/06/20 03:02:07;;;;;;;;;9.00;9.00;;;;;17.96;88.78;100584.34;4992640;28;51748;-54
2021/06/20 03:04:32;;;;;;;;;15.75;15.50;;;;;17.93;88.54;100574.69;4992878;28;51031;-53
2021/06/20 03:06:57;;;;;;;;;16.75;15.75;;;;;17.92;88.44;100582.56;4992879;28;51095;-52
2021/06/20 03:09:22;;;;;;;;;8.67;8.00;;;;;17.90;88.40;100579.91;4993291;28;51065;-51
2021/06/20 03:11:48;;;;;;;;;5.00;5.00;;;;;17.88;88.16;100575.53;4992590;28;52034;-53
2021/06/20 03:14:14;;;;;;;;;5.33;4.33;;;;;17.87;88.10;100579.88;4993231;28;50943;-51
2021/06/20 03:16:41;;;;;;;;;22.00;22.00;;;;;17.84;87.78;100586.00;4992679;28;51130;-53
2021/06/20 03:19:07;;;;;;;;;3.00;3.00;;;;;17.83;87.58;100583.34;4982706;28;51096;-52
2021/06/20 03:21:32;;;;;;;;;4.00;4.00;;;;;17.78;86.77;100579.81;4988961;28;51128;-51
2021/06/20 03:23:58;;;;;;;;;3.67;3.67;;;;;17.75;86.56;100578.03;4992535;28;50990;-54
2021/06/20 03:26:23;;;;;;;;;4.67;3.33;;;;;17.73;86.62;100576.25;4991360;28;51081;-51
2021/06/20 03:28:48;;;;;;;;;4.00;3.33;;;;;17.71;86.56;100579.75;4993073;28;51062;-52
2021/06/20 03:31:17;;;;;;;;;3.00;2.33;;;;;17.69;86.17;100563.09;4992122;28;51978;-51
2021/06/20 03:33:43;;;;;;;;;3.00;3.00;;;;;17.68;86.23;100558.72;4986289;28;51056;-54
2021/06/20 03:36:08;;;;;;;;;3.33;3.33;;;;;17.67;85.80;100566.56;4990981;28;50978;-52
2021/06/20 03:38:33;;;;;;;;;3.00;3.00;;;;;17.66;85.74;100577.94;4998292;28;50923;-52
2021/06/20 03:40:59;;;;;;;;;3.67;3.67;;;;;17.65;85.54;100578.81;4992254;28;51044;-54
2021/06/20 03:43:24;;;;;;;;;4.00;3.00;;;;;17.63;85.31;100564.81;4992470;28;51505;-54
2021/06/20 03:45:49;;;;;;;;;4.67;4.33;;;;;17.62;84.99;100563.03;4992320;28;51018;-53
2021/06/20 03:48:15;;;;;;;;;3.00;3.00;;;;;17.61;84.90;100559.53;4992677;28;51359;-54
2021/06/20 03:50:40;;;;;;;;;3.00;3.00;;;;;17.59;84.69;100569.13;4990828;28;54070;-54
2021/06/20 03:53:05;;;;;;;;;2.67;2.67;;;;;17.57;84.80;100563.88;4987816;28;50848;-54
2021/06/20 03:55:31;;;;;;;;;3.33;3.00;;;;;17.56;84.41;100564.72;4995638;28;51004;-53
2021/06/20 03:57:56;;;;;;;;;4.33;4.00;;;;;17.57;84.11;100568.25;4996181;28;51018;-52
2021/06/20 04:00:22;;;;;;;;;3.67;3.67;;;;;17.55;83.99;100556.84;4995350;28;52100;-52
2021/06/20 04:02:47;;;;;;;;;2.33;2.33;;;;;17.52;83.68;100556.84;4995964;28;51159;-50
2021/06/20 04:05:14;;;;;;;;;3.67;3.67;;;;;17.52;83.81;100570.81;4977902;28;51527;-53
2021/06/20 04:07:40;;;;;;;;;4.00;3.00;;;;;17.52;83.53;100577.84;4995669;28;51026;-50
2021/06/20 04:10:06;;;;;;;;;3.00;3.00;;;;;17.52;83.46;100572.59;4994902;28;50988;-50
2021/06/20 04:12:32;;;;;;;;;3.00;3.00;;;;;17.52;83.60;100572.59;4995681;28;51005;-53
2021/06/20 04:14:57;;;;;;;;;3.67;3.00;;;;;17.53;83.02;100576.97;4991905;28;51096;-50
2021/06/20 04:17:23;;;;;;;;;3.00;3.00;;;;;17.55;82.97;100588.34;4981949;28;51213;-51
2021/06/20 04:19:49;;;;;;;;;4.00;4.00;;;;;17.56;82.93;100593.63;4995189;28;51051;-51
2021/06/20 04:22:14;;;;;;;;;3.00;3.00;;;;;17.59;82.74;100598.00;4995467;28;50887;-51
2021/06/20 04:24:40;;;;;;;;;3.00;2.67;;;;;17.62;82.57;100594.53;4995009;28;51241;-53
2021/06/20 04:27:05;;;;;;;;;3.33;3.33;;;;;17.64;82.56;100592.81;4996234;28;51225;-53
2021/06/20 04:29:31;;;;;;;;;3.00;3.00;;;;;17.67;82.37;100601.59;4994815;28;52392;-53
2021/06/20 04:31:56;;;;;;;;;3.33;3.33;;;;;17.67;81.94;100596.34;4990682;28;51058;-53
2021/06/20 04:34:21;;;;;;;;;4.67;4.67;;;;;17.71;82.22;100610.38;4995223;28;50876;-53
2021/06/20 04:36:47;;;;;;;;;12.67;9.33;;;;;17.74;82.00;100604.28;4993736;28;51133;-52
2021/06/20 04:39:14;;;;;;;;;2.67;2.67;;;;;17.77;82.00;100607.84;4994934;28;51075;-51
2021/06/20 04:41:40;;;;;;;;;2.00;2.00;;;;;17.79;81.56;100607.81;4996033;28;51028;-52
2021/06/20 04:44:42;;;;;;;;;3.00;3.00;;;;;17.82;81.35;100602.59;4995225;28;51179;-51
2021/06/20 04:46:52;;;;;;;;;5.00;5.00;;;;;17.87;81.49;100592.16;4996234;28;51173;-54
2021/06/20 04:49:19;;;;;;;;;4.00;4.00;;;;;17.90;81.07;100582.56;4991372;28;52200;-53
2021/06/20 04:51:45;;;;;;;;;4.00;3.00;;;;;17.98;80.96;100585.22;4975807;28;51008;-50
2021/06/20 04:54:12;;;;;;;;;3.00;3.00;;;;;18.02;80.16;100586.13;4981186;28;51097;-53
2021/06/20 04:56:39;;;;;;;;;4.33;4.00;;;;;18.12;79.71;100601.16;4993732;28;51262;-52
2021/06/20 04:59:06;;;;;;;;;2.67;2.67;;;;;18.12;79.25;100601.16;4994347;28;51100;-50
2021/06/20 05:01:31;;;;;;;;;5.00;4.00;;;;;18.12;79.09;100595.00;4976964;28;51113;-51
2021/06/20 05:03:56;;;;;;;;;4.00;4.00;;;;;18.14;78.88;100601.16;4960151;28;51140;-50
2021/06/20 05:06:22;;;;;;;;;2.00;2.00;;;;;18.65;79.53;100597.97;4994670;28;51333;-49
2021/06/20 05:08:47;;;;;;;;;3.33;3.33;;;;;19.45;79.29;100592.16;4993570;28;52167;-54
2021/06/20 05:11:13;;;;;;;;;3.00;3.00;;;;;20.35;77.92;100585.19;4994556;28;51079;-54
2021/06/20 05:13:39;;;;;;;;;1.67;1.33;;;;;21.08;75.66;100587.59;4994582;28;51087;-55
2021/06/20 05:16:05;;;;;;;;;3.67;3.00;;;;;21.80;74.38;100596.00;4994846;28;51259;-53
2021/06/20 05:18:31;;;;;;;;;4.00;3.33;;;;;22.53;72.08;100594.47;4994109;28;52490;-53
2021/06/20 05:20:57;;;;;;;;;3.00;3.00;;;;;23.24;68.89;100590.09;4994338;28;51189;-54
2021/06/20 05:23:22;;;;;;;;;4.00;4.00;;;;;23.92;68.18;100609.41;4994217;28;51141;-56
2021/06/20 05:25:48;;;;;;;;;3.00;3.00;;;;;24.46;66.55;100604.97;4994711;28;51053;-54
2021/06/20 05:28:14;;;;;;;;;3.00;3.00;;;;;24.83;63.59;100605.13;4994177;28;51863;-52
2021/06/20 05:30:41;;;;;;;;;3.00;3.00;;;;;25.06;62.66;100604.72;4993592;28;51054;-52
2021/06/20 05:33:06;;;;;;;;;3.00;3.00;;;;;25.50;61.59;100588.66;4992524;28;51225;-50
2021/06/20 05:35:32;;;;;;;;;3.00;3.00;;;;;26.05;59.70;100585.56;4994071;28;51447;-53
2021/06/20 05:37:58;;;;;;;;;3.00;3.00;;;;;26.24;55.72;100587.72;4998601;28;51057;-52
2021/06/20 05:40:23;;;;;;;;;3.00;2.00;;;;;26.44;56.21;100581.91;4994185;28;50946;-50
2021/06/20 05:42:49;;;;;;;;;3.67;3.33;;;;;26.85;54.61;100589.63;4976098;28;51187;-50
2021/06/20 05:45:14;;;;;;;;;4.00;3.33;;;;;27.41;54.40;100591.53;4994306;28;51712;-52
2021/06/20 05:47:40;;;;;;;;;5.33;5.33;;;;;27.64;52.82;100594.41;4993689;28;52025;-52
2021/06/20 05:50:06;;;;;;;;;3.00;3.00;;;;;27.58;52.49;100591.88;4990182;28;50884;-52
2021/06/20 05:52:31;;;;;;;;;2.67;2.67;;;;;27.93;52.31;100594.31;4992660;28;51096;-51
2021/06/20 05:54:56;;;;;;;;;3.67;3.67;;;;;27.74;50.06;100594.09;4993789;28;50978;-51
2021/06/20 05:57:22;;;;;;;;;4.00;4.00;;;;;26.94;49.21;100606.28;4993616;28;50981;-51
2021/06/20 05:59:48;;;;;;;;;4.00;3.00;;;;;25.82;49.19;100615.41;4993886;28;51010;-53
2021/06/20 06:02:14;;;;;;;;;2.67;2.00;;;;;25.00;51.47;100604.81;4993915;28;51023;-50
2021/06/20 06:04:43;;;;;;;;;4.00;4.00;;;;;24.82;52.88;100612.25;4992338;28;51237;-51
2021/06/20 06:07:08;;;;;;;;;3.00;3.00;;;;;25.19;53.15;100609.72;4980093;28;53156;-53
2021/06/20 06:09:35;;;;;;;;;2.33;2.33;;;;;25.13;52.98;100598.34;4993444;28;50950;-52
2021/06/20 06:12:01;;;;;;;;;2.33;2.00;;;;;25.39;53.34;100603.97;4993505;28;50882;-51
2021/06/20 06:14:27;;;;;;;;;3.00;3.00;;;;;25.97;52.49;100613.28;4976207;28;51058;-49
2021/06/20 06:16:52;;;;;;;;;2.00;2.00;;;;;26.16;51.52;100617.22;4991533;28;52811;-54
2021/06/20 06:19:18;;;;;;;;;2.00;2.00;;;;;26.31;51.59;100613.31;4993458;28;50880;-53
2021/06/20 06:21:45;;;;;;;;;3.00;3.00;;;;;26.33;51.03;100614.13;4992017;28;50997;-51
2021/06/20 06:24:10;;;;;;;;;3.00;3.00;;;;;25.95;49.72;100606.22;4975394;28;51198;-50
2021/06/20 06:26:36;;;;;;;;;3.00;3.00;;;;;25.59;49.60;100603.53;4992991;28;51908;-49
2021/06/20 06:29:02;;;;;;;;;2.67;2.67;;;;;25.26;50.27;100611.34;4992471;28;51015;-50
2021/06/20 06:31:27;;;;;;;;;4.00;4.00;;;;;25.36;50.95;100606.72;4993304;28;51144;-52
2021/06/20 06:33:53;;;;;;;;;7.00;5.67;;;;;25.48;51.03;100606.41;4993348;28;51085;-51
2021/06/20 06:36:19;;;;;;;;;3.33;3.00;;;;;25.59;50.96;100602.66;4992774;28;52908;-51
2021/06/20 06:38:44;;;;;;;;;5.00;4.00;;;;;25.90;51.07;100607.25;4993388;28;50989;-53
2021/06/20 06:41:10;;;;;;;;;5.00;3.33;;;;;25.97;50.48;100592.88;4991430;28;50925;-50
2021/06/20 06:43:35;;;;;;;;;3.67;3.67;;;;;26.11;49.86;100595.16;4990632;28;51037;-54
2021/06/20 06:46:00;;;;;;;;;3.00;3.00;;;;;26.68;49.93;100591.91;4993665;28;51200;-54
2021/06/20 06:48:26;;;;;;;;;3.33;3.33;;;;;26.87;49.18;100610.88;4986950;28;51034;-53
2021/06/20 06:50:51;;;;;;;;;4.33;4.33;;;;;27.40;49.53;100606.69;4987755;28;51278;-50
2021/06/20 06:53:17;;;;;;;;;4.00;4.00;;;;;29.38;49.15;100596.25;4991178;28;51375;-51
2021/06/20 06:55:42;;;;;;;;;3.00;3.00;;;;;31.37;46.43;100594.78;4989587;28;50962;-54
2021/06/20 06:58:08;;;;;;;;;3.33;2.33;;;;;32.94;43.60;100600.19;4991261;28;50930;-50
2021/06/20 07:00:33;;;;;;;;;3.00;3.00;;;;;34.04;40.39;100608.34;4991690;28;51065;-52
2021/06/20 07:02:59;;;;;;;;;3.67;3.00;;;;;35.11;38.89;100616.22;4991268;28;51000;-51
2021/06/20 07:05:26;;;;;;;;;2.00;2.00;;;;;36.18;36.87;100617.28;4988456;28;52142;-54
2021/06/20 07:07:52;;;;;;;;;2.00;2.00;;;;;37.28;34.81;100615.88;4990397;28;51034;-55
2021/06/20 07:10:18;;;;;;;;;2.00;2.00;;;;;38.11;34.51;100624.16;4988325;28;51116;-53
2021/06/20 07:12:44;;;;;;;;;3.00;3.00;;;;;38.92;33.26;100633.22;4971374;28;51020;-51
2021/06/20 07:15:12;;;;;;;;;2.00;2.00;;;;;39.79;31.90;100626.13;4988516;28;51978;-54
2021/06/20 07:17:39;;;;;;;;;3.00;2.00;;;;;40.24;30.26;100625.03;4960945;28;51130;-53
2021/06/20 07:20:08;;;;;;;;;2.00;2.00;;;;;40.09;26.86;100616.34;4990812;28;51504;-49
2021/06/20 07:22:36;;;;;;;;;2.00;2.00;;;;;39.60;26.01;100627.69;4988508;28;51107;-54
2021/06/20 07:25:02;;;;;;;;;3.67;3.00;;;;;39.15;26.85;100634.06;4987811;28;51856;-53
2021/06/20 07:27:28;;;;;;;;;3.00;2.00;;;;;39.81;27.37;100624.13;4991672;28;51038;-51
2021/06/20 07:29:57;;;;;;;;;1.00;1.00;;;;;40.67;26.91;100630.41;4992403;28;52694;-53
2021/06/20 07:32:22;;;;;;;;;2.00;2.00;;;;;41.33;24.49;100630.94;4990343;28;51410;-52
2021/06/20 07:34:51;;;;;;;;;2.00;2.00;;;;;41.15;24.76;100630.69;4978639;28;52367;-53
2021/06/20 07:37:17;;;;;;;;;3.00;2.00;;;;;41.74;25.09;100644.44;4999663;28;51061;-50
2021/06/20 07:39:45;;;;;;;;;2.00;2.00;;;;;42.68;24.81;100643.84;4998664;28;51102;-54
2021/06/20 07:42:10;;;;;;;;;2.00;2.00;;;;;43.81;23.70;100646.28;4993904;28;51201;-51
2021/06/20 07:44:35;;;;;;;;;2.33;2.33;;;;;44.42;23.18;100639.22;4994321;28;51848;-52
2021/06/20 07:47:01;;;;;;;;;2.33;2.33;;;;;45.17;22.48;100637.63;4995081;28;51095;-55
2021/06/20 07:49:26;;;;;;;;;2.00;2.00;;;;;44.85;20.57;100626.41;4993548;28;51180;-55
2021/06/20 07:51:51;;;;;;;;;3.00;2.00;;;;;44.88;20.42;100624.34;4993127;28;51024;-54
2021/06/20 07:54:17;;;;;;;;;3.00;3.00;;;;;45.60;20.69;100615.63;4983259;28;51496;-53
2021/06/20 07:56:42;;;;;;;;;1.00;1.00;;;;;46.35;20.97;100623.78;4987372;28;51650;-54
2021/06/20 07:59:08;;;;;;;;;1.33;1.33;;;;;47.03;19.88;100614.22;4991229;28;51785;-54
2021/06/20 08:01:33;;;;;;;;;2.67;2.00;;;;;47.03;18.93;100611.47;4989209;28;51114;-53
2021/06/20 08:03:58;;;;;;;;;1.33;1.33;;;;;47.21;19.45;100607.59;4988498;28;51521;-54
2021/06/20 08:06:24;;;;;;;;;2.33;2.00;;;;;47.45;18.83;100612.09;4991156;28;51052;-53
2021/06/20 08:08:55;;;;;;;;;1.67;1.67;;;;;47.67;18.17;100610.34;4986460;28;51308;-55
2021/06/20 08:11:25;;;;;;;;;4.00;4.00;;;;;48.22;18.70;100601.06;4989194;28;51249;-53
2021/06/20 08:13:50;;;;;;;;;6.33;4.67;;;;;48.88;17.95;100594.72;4989607;28;52310;-52
2021/06/20 08:16:17;;;;;;;;;2.00;2.00;;;;;49.36;17.92;100601.59;4988946;28;51090;-53
2021/06/20 08:18:43;;;;;;;;;1.00;1.00;;;;;49.35;15.86;100596.28;4989407;28;50988;-55
2021/06/20 08:21:09;;;;;;;;;2.00;2.00;;;;;49.17;16.70;100603.06;4988539;28;51271;-52
2021/06/20 08:23:35;;;;;;;;;2.00;1.67;;;;;49.56;15.91;100611.09;4989665;28;51023;-55
2021/06/20 08:26:03;;;;;;;;;1.00;1.00;;;;;50.08;16.24;100586.88;4986744;28;51207;-54
2021/06/20 08:28:29;;;;;;;;;2.00;1.33;;;;;50.61;15.39;100595.63;4988568;28;51125;-54
2021/06/20 08:30:54;;;;;;;;;1.00;1.00;;;;;51.17;14.76;100590.94;4985013;28;51172;-54
2021/06/20 08:33:20;;;;;;;;;1.67;1.67;;;;;51.68;14.59;100588.59;4982222;28;51268;-54
2021/06/20 08:35:45;;;;;;;;;3.00;3.00;;;;;51.84;13.91;100581.81;4990551;28;51323;-54
2021/06/20 08:38:14;;;;;;;;;3.33;2.67;;;;;51.50;14.26;100592.88;4989064;28;51136;-53
2021/06/20 08:40:42;;;;;;;;;2.67;2.67;;;;;51.19;13.60;100588.81;4990497;28;51235;-56
2021/06/20 08:43:07;;;;;;;;;3.33;3.00;;;;;50.68;14.03;100589.06;4982087;28;52365;-55
2021/06/20 08:45:32;;;;;;;;;3.00;3.00;;;;;50.43;14.29;100594.28;4974851;28;52205;-55
2021/06/20 08:48:00;;;;;;;;;1.00;1.00;;;;;49.64;13.27;100583.34;4976845;28;51047;-54
2021/06/20 08:50:25;;;;;;;;;3.67;3.00;;;;;48.23;13.91;100586.25;4976438;28;50935;-53
2021/06/20 08:52:54;;;;;;;;;3.33;3.00;;;;;47.26;15.09;100591.41;4993265;28;52112;-55
2021/06/20 08:55:20;;;;;;;;;4.00;3.00;;;;;46.78;15.49;100578.66;4994005;28;51114;-52
2021/06/20 08:57:48;;;;;;;;;2.00;2.00;;;;;46.40;15.99;100579.34;4994349;28;50966;-51
2021/06/20 09:00:16;;;;;;;;;2.00;2.00;;;;;46.76;15.46;100572.50;4993867;28;51075;-55
2021/06/20 09:02:42;;;;;;;;;2.00;2.00;;;;;47.60;16.18;100570.03;4990981;28;51276;-56
2021/06/20 09:05:09;;;;;;;;;1.67;1.33;;;;;48.55;15.48;100564.88;4993703;28;51104;-54
2021/06/20 09:07:38;;;;;;;;;3.00;3.00;;;;;49.83;14.97;100556.13;4993800;28;51097;-54
2021/06/20 09:10:16;;;;;;;;;2.00;2.00;;;;;51.30;14.06;100554.13;4956817;28;51082;-54
2021/06/20 09:13:04;;;;;;;;;1.67;1.67;;;;;52.29;13.09;100539.50;4956836;28;52196;-56
2021/06/20 09:15:32;;;;;;;;;5.67;5.67;;;;;53.06;13.54;100532.25;4980631;28;51080;-56
2021/06/20 09:18:07;;;;;;;;;1.00;1.00;;;;;53.58;12.19;100528.41;4993664;28;51022;-55
2021/06/20 09:20:35;;;;;;;;;2.00;2.00;;;;;53.68;11.58;100528.72;4993694;28;51174;-56
2021/06/20 09:23:03;;;;;;;;;2.00;2.00;;;;;53.89;11.59;100525.75;4992818;28;51897;-59
2021/06/20 09:25:29;;;;;;;;;2.00;2.00;;;;;53.81;11.49;100521.34;4968657;28;51046;-59
2021/06/20 09:28:00;;;;;;;;;2.00;2.00;;;;;53.93;11.56;100513.94;4993317;28;50988;-59
2021/06/20 09:30:31;;;;;;;;;3.00;2.33;;;;;54.23;11.10;100503.16;4993414;28;51081;-59
2021/06/20 09:33:05;;;;;;;;;2.00;2.00;;;;;54.14;10.33;100500.66;4993252;28;51752;-59
2021/06/20 09:35:44;;;;;;;;;4.00;4.00;;;;;54.01;10.68;100492.50;4983749;28;51560;-59
2021/06/20 09:38:17;;;;;;;;;2.00;2.00;;;;;53.86;10.42;100493.72;5002222;28;50899;-59
2021/06/20 09:40:43;;;;;;;;;3.00;2.00;;;;;54.12;10.71;100493.66;4993320;28;51097;-60
2021/06/20 09:43:16;;;;;;;;;2.00;2.00;;;;;54.42;10.27;100504.78;4975777;28;51907;-59
2021/06/20 09:45:47;;;;;;;;;2.00;2.00;;;;;55.02;10.00;100509.69;4973767;28;51118;-59
2021/06/20 09:48:27;;;;;;;;;5.00;4.00;;;;;55.62;9.81;100516.94;4973444;28;51089;-58
2021/06/20 09:50:55;;;;;;;;;2.00;2.00;;;;;56.16;9.30;100520.56;4972783;28;51121;-59
2021/06/20 09:53:31;;;;;;;;;2.00;2.00;;;;;56.52;8.96;100510.16;4973006;28;51351;-58
2021/06/20 09:56:09;;;;;;;;;3.25;2.25;;;;;56.85;8.90;100504.03;4980101;28;51178;-60
2021/06/20 09:58:35;;;;;;;;;2.67;2.67;;;;;57.24;8.36;100506.88;4985246;28;51233;-60
2021/06/20 10:01:17;;;;;;;;;2.50;2.50;;;;;57.64;8.53;100499.34;4985000;28;51437;-59
2021/06/20 10:03:45;;;;;;;;;1.33;1.33;;;;;57.74;8.45;100498.66;4985239;28;51487;-59
2021/06/20 10:06:12;;;;;;;;;2.33;2.33;;;;;57.66;8.58;100502.75;4977572;28;51257;-59
2021/06/20 10:08:38;;;;;;;;;3.33;2.33;;;;;55.78;8.73;100513.66;4984128;28;51273;-58
2021/06/20 10:11:04;;;;;;;;;4.00;4.00;;;;;54.25;8.93;100498.19;4984186;28;51278;-60
2021/06/20 10:13:30;;;;;;;;;2.75;2.75;;;;;54.11;9.94;100506.66;4984651;28;51033;-57
2021/06/20 10:16:10;;;;;;;;;3.67;3.33;;;;;53.81;8.36;100499.13;4984813;28;51560;-58
2021/06/20 10:18:38;;;;;;;;;2.33;2.33;;;;;53.13;9.87;100472.03;4990319;28;51104;-58
2021/06/20 10:21:04;;;;;;;;;3.00;3.00;;;;;53.59;10.31;100473.75;4992612;28;51018;-61
2021/06/20 10:23:29;;;;;;;;;3.00;3.00;;;;;52.71;9.43;100468.97;4981150;28;51782;-59
2021/06/20 10:26:07;;;;;;;;;2.75;2.75;;;;;52.03;10.70;100458.28;4991005;28;50945;-57
2021/06/20 10:28:33;;;;;;;;;3.00;3.00;;;;;52.45;10.85;100448.69;4992556;28;50934;-58
2021/06/20 10:31:09;;;;;;;;;3.00;3.00;;;;;53.20;9.76;100446.22;4992421;28;51130;-59
2021/06/20 10:33:37;;;;;;;;;2.33;2.33;;;;;54.12;9.75;100452.00;4990196;28;51935;-59
2021/06/20 10:36:09;;;;;;;;;4.00;3.75;;;;;52.55;9.83;100449.06;4984683;28;51274;-58
2021/06/20 10:38:46;;;;;;;;;3.00;3.00;;;;;51.16;10.41;100443.59;4976397;28;51156;-59
2021/06/20 10:41:22;;;;;;;;;2.67;2.67;;;;;49.50;10.90;100431.63;4991667;28;51058;-59
2021/06/20 10:44:00;;;;;;;;;2.33;2.33;;;;;49.53;12.04;100422.09;4992011;28;52273;-58
2021/06/20 10:46:26;;;;;;;;;2.67;2.67;;;;;50.71;11.54;100401.91;4974457;28;51054;-58
2021/06/20 10:48:52;;;;;;;;;2.33;2.33;;;;;51.48;10.91;100382.09;4991637;28;51137;-58
2021/06/20 10:51:19;;;;;;;;;2.00;2.00;;;;;51.75;10.56;100376.44;4987328;28;51078;-59
2021/06/20 10:53:45;;;;;;;;;2.67;2.67;;;;;50.68;10.83;100362.59;4977517;28;51727;-58
2021/06/20 10:56:30;;;;;;;;;3.00;3.00;;;;;48.48;11.34;100344.53;4991349;28;51030;-59
2021/06/20 10:58:57;;;;;;;;;3.00;2.67;;;;;47.63;12.19;100335.97;4974496;28;51055;-58
2021/06/20 11:01:27;;;;;;;;;2.00;2.00;;;;;47.27;12.18;100340.31;4991478;28;51304;-60
2021/06/20 11:03:53;;;;;;;;;2.67;2.67;;;;;45.89;12.64;100345.50;4991056;28;51019;-58
2021/06/20 11:06:20;;;;;;;;;2.00;2.00;;;;;45.24;12.17;100352.91;4991560;28;50965;-59
2021/06/20 11:08:57;;;;;;;;;1.00;1.00;;;;;43.78;13.22;100351.34;4987483;28;51125;-59
2021/06/20 11:11:31;;;;;;;;;1.00;1.00;;;;;43.61;13.80;100324.97;4991020;28;51324;-59
2021/06/20 11:13:57;;;;;;;;;2.00;2.00;;;;;43.59;14.71;100299.69;4990954;28;52137;-58
2021/06/20 11:16:33;;;;;;;;;1.00;1.00;;;;;43.07;14.39;100291.38;4991247;28;50965;-58
2021/06/20 11:19:06;;;;;;;;;5.00;4.00;;;;;42.05;15.26;100308.03;4991366;28;51066;-59
2021/06/20 11:21:35;;;;;;;;;4.33;4.33;;;;;40.82;15.87;100301.63;4990948;28;51104;-59
2021/06/20 11:24:01;;;;;;;;;2.00;1.67;;;;;39.35;17.12;100298.44;4988598;28;53180;-59